PWSweather.com
Personal Weather Stations
Station Observations
KGAMARIE64
Piedmont Bend, Marietta, GA 30062

Piedmont BendMarietta, GA 30062

Lat: 33.995327, Lon: -84.491958

Elevation: 1125

Station Type: Davis Vantage Pro2 (Cabled)

http://www.ericboettner.com/weather

Latest ConditionsUpdated 11:00:01 PM EST Thursday, Feb 22, 2018
Currently Today's Max Today's Min Today's Average
Temperature 64.4°F18.0°C 80.3°F26.8°C 59.1°F15.1°C 68.2°F20.1°C
Dew Point 60.1°F15.6°C 64.9°F18.3°C 57.1°F13.9°C 60.6°F15.9°C
Winds Calm Calm 2.3 mph WNW3.7 kmh WNW - 0.3 mph 0.5 kmh
Wind Gusts -- 3.5 mph5.6 kmh - -
Humidity 86% 95% 50% 79%
Pressure 31.61 in1070.4 mb 31.68 in1072.8 mb 31.57 in1069.1 mb -
Hour Temp Dew Point Humidity Winds Wind Gusts Pressure Precip Precip Rate Daily Precip Total
11:00 PM 64.4°F18.0°C 60.1°F15.6°C 86% Calm Calm -- 31.61 in1070.4 mb - 0.00 in0.0 mm 0.00 in0.0 mm
10:30 PM 64.4°F18.0°C 59.5°F15.3°C 84% Calm Calm -- 31.62 in1070.8 mb - 0.00 in0.0 mm 0.00 in0.0 mm
10:00 PM 65.8°F18.8°C 60.2°F15.7°C 82% Calm Calm -- 31.62 in1070.8 mb - 0.00 in0.0 mm 0.00 in0.0 mm
09:30 PM 67.3°F19.6°C 60.6°F15.9°C 79% Calm Calm -- 31.62 in1070.8 mb - 0.00 in0.0 mm 0.00 in0.0 mm
09:00 PM 67.8°F19.9°C 60.7°F15.9°C 78% Calm Calm -- 31.61 in1070.4 mb - 0.00 in0.0 mm 0.00 in0.0 mm
08:30 PM 69.2°F20.7°C 61.3°F16.3°C 76% Calm Calm -- 31.61 in1070.4 mb - 0.00 in0.0 mm 0.00 in0.0 mm
08:00 PM 69.2°F20.7°C 61.3°F16.3°C 76% Calm Calm -- 31.61 in1070.4 mb - 0.00 in0.0 mm 0.00 in0.0 mm
07:30 PM 70.5°F21.4°C 61.4°F16.3°C 73% Calm Calm -- 31.60 in1070.1 mb - 0.00 in0.0 mm 0.00 in0.0 mm
07:00 PM 71.9°F22.2°C 61.6°F16.4°C 70% Calm Calm -- 31.60 in1070.1 mb - 0.00 in0.0 mm 0.00 in0.0 mm
06:30 PM 73.3°F22.9°C 61.3°F16.3°C 66% Calm Calm -- 31.59 in1069.8 mb - 0.00 in0.0 mm 0.00 in0.0 mm
06:00 PM 75.1°F23.9°C 62.1°F16.7°C 64% Calm Calm -- 31.59 in1069.8 mb - 0.00 in0.0 mm 0.00 in0.0 mm
05:30 PM 75.4°F24.1°C 61.9°F16.6°C 63% Calm Calm -- 31.58 in1069.4 mb - 0.00 in0.0 mm 0.00 in0.0 mm
05:00 PM 77.8°F25.4°C 60.8°F16.0°C 56% Calm Calm 1.2 mph1.9 kmh 31.57 in1069.1 mb - 0.00 in0.0 mm 0.00 in0.0 mm
04:30 PM 78.9°F26.1°C 59.8°F15.4°C 52% Calm Calm 1.2 mph1.9 kmh 31.57 in1069.1 mb - 0.00 in0.0 mm 0.00 in0.0 mm
04:00 PM 80.3°F26.8°C 60.0°F15.6°C 50% 1.2 mph NW1.9 kmh NW 2.3 mph3.7 kmh 31.57 in1069.1 mb - 0.00 in0.0 mm 0.00 in0.0 mm
03:30 PM 79.0°F26.1°C 61.0°F16.1°C 54% 1.2 mph NW1.9 kmh NW 2.3 mph3.7 kmh 31.58 in1069.4 mb - 0.00 in0.0 mm 0.00 in0.0 mm
03:00 PM 79.2°F26.2°C 61.6°F16.4°C 55% 1.2 mph NW1.9 kmh NW 2.3 mph3.7 kmh 31.59 in1069.8 mb - 0.00 in0.0 mm 0.00 in0.0 mm
02:30 PM 79.7°F26.5°C 62.1°F16.7°C 55% 1.2 mph NW1.9 kmh NW 2.3 mph3.7 kmh 31.60 in1070.1 mb - 0.00 in0.0 mm 0.00 in0.0 mm
02:00 PM 79.1°F26.2°C 62.6°F17.0°C 57% 1.2 mph NW1.9 kmh NW 2.3 mph3.7 kmh 31.62 in1070.8 mb - 0.00 in0.0 mm 0.00 in0.0 mm
01:30 PM 79.0°F26.1°C 63.0°F17.2°C 58% Calm Calm 2.3 mph3.7 kmh 31.63 in1071.1 mb - 0.00 in0.0 mm 0.00 in0.0 mm
01:00 PM 77.3°F25.2°C 63.3°F17.4°C 62% 2.3 mph WNW3.7 kmh WNW 3.5 mph5.6 kmh 31.65 in1071.8 mb - 0.00 in0.0 mm 0.00 in0.0 mm
12:30 PM 75.9°F24.4°C 63.3°F17.4°C 65% Calm Calm 2.3 mph3.7 kmh 31.66 in1072.1 mb - 0.00 in0.0 mm 0.00 in0.0 mm
12:00 PM 75.6°F24.2°C 63.4°F17.4°C 66% 1.2 mph NW1.9 kmh NW 2.3 mph3.7 kmh 31.67 in1072.5 mb - 0.00 in0.0 mm 0.00 in0.0 mm
11:30 AM 76.8°F24.9°C 63.7°F17.6°C 64% 1.2 mph NW1.9 kmh NW 1.2 mph1.9 kmh 31.67 in1072.5 mb - 0.00 in0.0 mm 0.00 in0.0 mm
11:00 AM 74.3°F23.5°C 64.7°F18.2°C 72% 1.2 mph NW1.9 kmh NW 3.5 mph5.6 kmh 31.67 in1072.5 mb - 0.00 in0.0 mm 0.00 in0.0 mm
10:30 AM 71.7°F22.1°C 64.9°F18.3°C 79% 1.2 mph NW1.9 kmh NW 2.3 mph3.7 kmh 31.67 in1072.5 mb - 0.00 in0.0 mm 0.00 in0.0 mm
10:00 AM 67.9°F19.9°C 63.9°F17.7°C 87% Calm Calm 1.2 mph1.9 kmh 31.68 in1072.8 mb - 0.00 in0.0 mm 0.00 in0.0 mm
09:30 AM 65.0°F18.3°C 62.9°F17.2°C 93% Calm Calm 1.2 mph1.9 kmh 31.68 in1072.8 mb - 0.00 in0.0 mm 0.00 in0.0 mm
09:00 AM 63.2°F17.3°C 61.8°F16.6°C 95% Calm Calm -- 31.68 in1072.8 mb - 0.00 in0.0 mm 0.00 in0.0 mm
08:30 AM 61.7°F16.5°C 60.0°F15.6°C 94% Calm Calm 1.2 mph1.9 kmh 31.68 in1072.8 mb - 0.00 in0.0 mm 0.00 in0.0 mm
08:00 AM 60.4°F15.8°C 58.7°F14.8°C 94% Calm Calm -- 31.67 in1072.5 mb - 0.00 in0.0 mm 0.00 in0.0 mm
07:30 AM 59.9°F15.5°C 58.2°F14.6°C 94% Calm Calm -- 31.66 in1072.1 mb - 0.00 in0.0 mm 0.00 in0.0 mm
07:00 AM 59.9°F15.5°C 58.2°F14.6°C 94% Calm Calm -- 31.65 in1071.8 mb - 0.00 in0.0 mm 0.00 in0.0 mm
06:30 AM 60.0°F15.6°C 58.2°F14.6°C 94% Calm Calm -- 31.64 in1071.5 mb - 0.00 in0.0 mm 0.00 in0.0 mm
06:00 AM 59.2°F15.1°C 57.5°F14.2°C 94% Calm Calm -- 31.63 in1071.1 mb - 0.00 in0.0 mm 0.00 in0.0 mm
05:30 AM 59.3°F15.2°C 57.6°F14.2°C 94% Calm Calm -- 31.62 in1070.8 mb - 0.00 in0.0 mm 0.00 in0.0 mm
05:00 AM 59.1°F15.1°C 57.1°F13.9°C 93% Calm Calm -- 31.61 in1070.4 mb - 0.00 in0.0 mm 0.00 in0.0 mm
04:30 AM 59.5°F15.3°C 57.7°F14.3°C 94% Calm Calm -- 31.61 in1070.4 mb - 0.00 in0.0 mm 0.00 in0.0 mm
04:00 AM 59.2°F15.1°C 57.2°F14.0°C 93% Calm Calm -- 31.60 in1070.1 mb - 0.00 in0.0 mm 0.00 in0.0 mm
03:30 AM 59.5°F15.3°C 57.5°F14.2°C 93% Calm Calm -- 31.60 in1070.1 mb - 0.00 in0.0 mm 0.00 in0.0 mm
03:00 AM 60.0°F15.6°C 58.0°F14.4°C 93% Calm Calm -- 31.60 in1070.1 mb - 0.00 in0.0 mm 0.00 in0.0 mm
02:30 AM 60.3°F15.7°C 58.2°F14.6°C 93% Calm Calm -- 31.61 in1070.4 mb - 0.00 in0.0 mm 0.00 in0.0 mm
02:00 AM 61.0°F16.1°C 58.7°F14.8°C 92% Calm Calm -- 31.60 in1070.1 mb - 0.00 in0.0 mm 0.00 in0.0 mm
01:30 AM 61.8°F16.6°C 59.5°F15.3°C 92% Calm Calm -- 31.59 in1069.8 mb - 0.00 in0.0 mm 0.00 in0.0 mm
01:00 AM 62.8°F17.1°C 60.7°F15.9°C 93% Calm Calm -- 31.59 in1069.8 mb - 0.00 in0.0 mm 0.00 in0.0 mm
12:30 AM 62.6°F17.0°C 60.2°F15.7°C 92% Calm Calm -- 31.59 in1069.8 mb - 0.00 in0.0 mm 0.00 in0.0 mm
12:00 AM 63.3°F17.4°C 60.9°F16.1°C 92% Calm Calm -- 31.59 in1069.8 mb - 0.00 in0.0 mm 0.00 in0.0 mm